createdAt,value
2022-10-19T00:02:06.955Z,10.81
2022-10-19T00:04:33.496Z,10.82
2022-10-19T00:06:59.981Z,10.84
2022-10-19T00:09:26.500Z,10.83
2022-10-19T00:11:52.985Z,10.73
2022-10-19T00:14:23.152Z,10.66
2022-10-19T00:16:51.594Z,10.68
2022-10-19T00:19:21.905Z,10.66
2022-10-19T00:24:20.252Z,10.59
2022-10-19T00:26:46.784Z,10.53
2022-10-19T00:29:14.609Z,10.41
2022-10-19T00:31:41.429Z,10.43
2022-10-19T00:34:07.983Z,10.39
2022-10-19T00:36:37.781Z,10.48
2022-10-19T00:39:06.175Z,10.58
2022-10-19T00:41:34.735Z,10.76
2022-10-19T00:44:03.002Z,10.84
2022-10-19T00:46:32.634Z,10.85
2022-10-19T00:49:10.833Z,10.86
2022-10-19T00:51:40.983Z,10.95
2022-10-19T00:54:08.877Z,10.94
2022-10-19T00:56:39.754Z,10.94
2022-10-19T00:59:07.977Z,11.01
2022-10-19T01:01:34.983Z,11.04
2022-10-19T01:04:03.013Z,11.05
2022-10-19T01:06:30.105Z,11.00
2022-10-19T01:08:56.636Z,10.90
2022-10-19T01:11:34.932Z,10.93
2022-10-19T01:14:26.720Z,10.94
2022-10-19T01:17:22.288Z,10.96
2022-10-19T01:20:07.794Z,10.99
2022-10-19T01:22:40.119Z,11.03
2022-10-19T01:25:21.787Z,11.00
2022-10-19T01:27:51.247Z,10.99
2022-10-19T01:30:31.815Z,10.90
2022-10-19T01:33:04.337Z,10.89
2022-10-19T01:35:42.474Z,10.85
2022-10-19T01:38:24.732Z,10.84
2022-10-19T01:41:01.644Z,10.89
2022-10-19T01:43:40.652Z,11.09
2022-10-19T01:46:14.490Z,11.35
2022-10-19T01:48:47.325Z,11.42
2022-10-19T01:51:21.673Z,11.30
2022-10-19T01:53:52.356Z,11.33
2022-10-19T01:56:22.221Z,11.46
2022-10-19T01:58:51.474Z,11.50
2022-10-19T02:01:21.501Z,11.47
2022-10-19T02:03:48.861Z,11.47
2022-10-19T02:06:15.538Z,11.33
2022-10-19T02:08:48.676Z,11.39
2022-10-19T02:11:17.060Z,11.38
2022-10-19T02:13:45.076Z,11.36
2022-10-19T02:16:27.833Z,11.21
2022-10-19T02:18:55.836Z,11.13
2022-10-19T02:21:22.530Z,11.10
2022-10-19T02:23:51.801Z,11.14
2022-10-19T02:26:21.355Z,11.16
2022-10-19T02:28:49.607Z,11.19
2022-10-19T02:31:16.567Z,11.15
2022-10-19T02:33:43.252Z,11.20
2022-10-19T02:36:09.795Z,11.20
2022-10-19T02:38:36.501Z,11.25
2022-10-19T02:41:18.114Z,11.27
2022-10-19T02:43:49.351Z,11.32
2022-10-19T02:46:28.801Z,11.30
2022-10-19T02:48:57.111Z,11.29
2022-10-19T02:51:27.648Z,11.30
2022-10-19T02:53:54.136Z,11.35
2022-10-19T02:56:21.042Z,11.33
2022-10-19T02:58:47.456Z,11.40
2022-10-19T03:01:14.653Z,11.41
2022-10-19T03:03:41.190Z,11.40
2022-10-19T03:06:07.644Z,11.39
2022-10-19T03:08:34.093Z,11.39
2022-10-19T03:11:00.674Z,11.40
2022-10-19T03:13:27.378Z,11.39
2022-10-19T03:15:53.846Z,11.33
2022-10-19T03:18:20.281Z,11.46
2022-10-19T03:20:46.739Z,11.45
2022-10-19T03:23:13.174Z,11.46
2022-10-19T03:25:39.582Z,11.42
2022-10-19T03:28:06.057Z,11.48
2022-10-19T03:30:32.474Z,11.49
2022-10-19T03:32:58.936Z,11.49
2022-10-19T03:35:25.379Z,11.49
2022-10-19T03:37:51.807Z,11.48
2022-10-19T03:40:18.270Z,11.45
2022-10-19T03:42:44.792Z,11.46
2022-10-19T03:45:11.326Z,11.39
2022-10-19T03:47:37.751Z,11.41
2022-10-19T03:50:05.972Z,11.39
2022-10-19T03:52:32.407Z,11.30
2022-10-19T03:54:58.835Z,11.27
2022-10-19T03:57:25.287Z,11.23
2022-10-19T03:59:51.697Z,11.17
2022-10-19T04:02:18.119Z,11.11
2022-10-19T04:04:44.520Z,11.08
2022-10-19T04:07:11.060Z,11.07
2022-10-19T04:09:37.501Z,11.02
2022-10-19T04:12:04.125Z,10.96
2022-10-19T04:14:33.266Z,10.91
2022-10-19T04:17:05.522Z,10.87
2022-10-19T04:19:31.969Z,10.82
2022-10-19T04:21:59.149Z,10.82
2022-10-19T04:24:25.558Z,10.88
2022-10-19T04:26:54.299Z,10.94
2022-10-19T04:29:27.890Z,10.98
2022-10-19T04:31:56.477Z,10.99
2022-10-19T04:34:23.120Z,11.00
2022-10-19T04:36:49.612Z,11.06
2022-10-19T04:39:16.182Z,11.07
2022-10-19T04:41:42.644Z,11.19
2022-10-19T04:44:09.706Z,11.18
2022-10-19T04:46:37.319Z,11.25
2022-10-19T04:49:05.620Z,11.25
2022-10-19T04:51:32.119Z,11.32
2022-10-19T04:53:59.777Z,11.24
2022-10-19T04:56:27.633Z,11.28
2022-10-19T04:58:58.904Z,11.23
2022-10-19T05:01:26.714Z,11.29
2022-10-19T05:06:26.790Z,11.33
2022-10-19T05:08:53.599Z,11.34
2022-10-19T05:11:20.791Z,11.33
2022-10-19T05:13:48.174Z,11.32
2022-10-19T05:16:18.251Z,11.33
2022-10-19T05:18:49.319Z,11.33
2022-10-19T05:21:16.567Z,11.34
2022-10-19T05:23:43.342Z,11.35
2022-10-19T05:26:12.586Z,11.35
2022-10-19T05:28:39.194Z,11.32
2022-10-19T05:31:25.741Z,11.32
2022-10-19T05:33:52.234Z,11.29
2022-10-19T05:36:27.556Z,11.33
2022-10-19T05:38:56.521Z,11.31
2022-10-19T05:41:24.649Z,11.32
2022-10-19T05:43:56.560Z,11.33
2022-10-19T05:46:23.460Z,11.32
2022-10-19T05:48:49.902Z,11.32
2022-10-19T05:51:20.098Z,11.30
2022-10-19T05:53:46.902Z,11.28
2022-10-19T05:56:16.748Z,11.30
2022-10-19T05:58:43.458Z,11.32
2022-10-19T06:01:10.769Z,11.34
2022-10-19T06:03:37.218Z,11.27
2022-10-19T06:06:04.928Z,11.31
2022-10-19T06:08:31.499Z,11.34
2022-10-19T06:11:18.903Z,11.33
2022-10-19T06:13:47.429Z,11.36
2022-10-19T06:16:15.543Z,11.35
2022-10-19T06:18:42.829Z,11.30
2022-10-19T06:21:16.818Z,11.38
2022-10-19T06:23:43.365Z,11.41
2022-10-19T06:26:12.379Z,11.38
2022-10-19T06:28:40.692Z,11.41
2022-10-19T06:31:09.336Z,11.45
2022-10-19T06:33:36.625Z,11.46
2022-10-19T06:36:15.703Z,11.49
2022-10-19T06:38:42.784Z,11.49
2022-10-19T06:41:10.555Z,11.45
2022-10-19T06:43:37.144Z,11.47
2022-10-19T06:46:05.552Z,11.57
2022-10-19T06:48:32.082Z,11.58
2022-10-19T06:51:00.528Z,11.64
2022-10-19T06:53:29.089Z,11.66
2022-10-19T06:55:59.634Z,11.75
2022-10-19T06:58:26.353Z,11.70
2022-10-19T07:00:57.529Z,11.65
2022-10-19T07:03:25.233Z,11.71
2022-10-19T07:05:54.819Z,11.75
2022-10-19T07:08:21.513Z,11.72
2022-10-19T07:10:56.742Z,11.83
2022-10-19T07:13:24.366Z,11.84
2022-10-19T07:15:57.211Z,11.90
2022-10-19T07:18:23.723Z,11.97
2022-10-19T07:20:58.095Z,12.05
2022-10-19T07:23:26.953Z,12.11
2022-10-19T07:25:59.896Z,12.16
2022-10-19T07:28:26.654Z,12.07
2022-10-19T07:30:53.106Z,12.19
2022-10-19T07:33:19.570Z,12.22
2022-10-19T07:35:46.016Z,12.08
2022-10-19T07:38:12.464Z,12.11
2022-10-19T07:40:40.037Z,12.09
2022-10-19T07:43:08.893Z,12.10
2022-10-19T07:45:35.391Z,12.09
2022-10-19T07:48:01.835Z,12.11
2022-10-19T07:50:28.387Z,12.11
2022-10-19T07:52:55.374Z,12.13
2022-10-19T07:55:21.902Z,12.14
2022-10-19T07:57:49.886Z,12.18
2022-10-19T08:00:17.010Z,12.20
2022-10-19T08:02:59.691Z,12.14
2022-10-19T08:05:33.104Z,12.13
2022-10-19T08:07:59.571Z,12.26
2022-10-19T08:10:26.089Z,12.25
2022-10-19T08:12:52.635Z,12.18
2022-10-19T08:15:19.167Z,12.17
2022-10-19T08:17:45.610Z,12.31
2022-10-19T08:20:12.065Z,12.29
2022-10-19T08:22:38.503Z,12.32
2022-10-19T08:25:05.479Z,12.39
2022-10-19T08:27:31.983Z,12.39
2022-10-19T08:29:58.478Z,12.40
2022-10-19T08:32:25.009Z,12.43
2022-10-19T08:34:51.447Z,12.42
2022-10-19T08:37:26.276Z,12.43
2022-10-19T08:40:05.184Z,12.37
2022-10-19T08:42:47.809Z,12.43
2022-10-19T08:45:27.429Z,12.50
2022-10-19T08:48:03.011Z,12.58
2022-10-19T08:50:39.475Z,12.71
2022-10-19T08:53:44.911Z,12.89
2022-10-19T08:56:49.458Z,12.81
2022-10-19T08:59:30.464Z,12.72
2022-10-19T09:02:09.020Z,12.95
2022-10-19T09:04:40.218Z,13.13
2022-10-19T09:07:09.768Z,13.14
2022-10-19T09:09:42.485Z,13.24
2022-10-19T09:12:16.295Z,13.18
2022-10-19T09:14:51.590Z,13.07
2022-10-19T09:17:18.229Z,13.01
2022-10-19T09:19:44.667Z,13.04
2022-10-19T09:22:25.480Z,13.03
2022-10-19T09:25:00.797Z,13.04
2022-10-19T09:27:36.158Z,12.96
2022-10-19T09:30:07.119Z,13.11
2022-10-19T09:32:40.054Z,13.23
2022-10-19T09:35:37.470Z,13.35
2022-10-19T09:38:06.804Z,13.42
2022-10-19T09:40:35.041Z,13.55
2022-10-19T09:43:13.315Z,13.65
2022-10-19T09:45:47.696Z,13.46
2022-10-19T09:48:36.554Z,13.51
2022-10-19T09:51:10.671Z,13.59
2022-10-19T09:53:37.432Z,13.60
2022-10-19T09:56:07.771Z,13.73
2022-10-19T09:58:35.491Z,13.80
2022-10-19T10:01:03.112Z,13.79
2022-10-19T10:03:40.347Z,13.69
2022-10-19T10:06:13.638Z,13.95
2022-10-19T10:08:47.711Z,13.96
2022-10-19T10:11:22.864Z,14.20
2022-10-19T10:13:54.145Z,14.28
2022-10-19T10:16:23.777Z,14.43
2022-10-19T10:18:53.237Z,14.61
2022-10-19T10:21:33.649Z,14.78
2022-10-19T10:24:21.552Z,15.03
2022-10-19T10:26:51.745Z,15.22
2022-10-19T10:29:28.423Z,15.18
2022-10-19T10:31:56.237Z,15.24
2022-10-19T10:34:38.784Z,15.27
2022-10-19T10:37:34.954Z,15.63
2022-10-19T10:40:04.718Z,15.71
2022-10-19T10:42:44.225Z,15.69
2022-10-19T10:45:49.515Z,15.65
2022-10-19T10:48:25.038Z,15.31
2022-10-19T10:50:52.116Z,15.41
2022-10-19T10:53:43.756Z,15.89
2022-10-19T10:56:40.468Z,15.91
2022-10-19T10:59:23.253Z,15.84
2022-10-19T11:02:28.050Z,15.82
2022-10-19T11:05:08.088Z,16.30
2022-10-19T11:07:37.443Z,16.56
2022-10-19T11:10:20.196Z,16.42
2022-10-19T11:12:53.894Z,16.27
2022-10-19T11:18:19.074Z,15.97
2022-10-19T11:21:04.133Z,15.93
2022-10-19T11:23:44.354Z,15.78
2022-10-19T11:26:26.442Z,15.92
2022-10-19T11:29:30.409Z,15.74
2022-10-19T11:31:57.264Z,15.76
2022-10-19T11:34:53.596Z,15.91
2022-10-19T11:37:49.819Z,15.65
2022-10-19T11:40:32.028Z,15.32
2022-10-19T11:43:12.678Z,15.29
2022-10-19T11:45:45.381Z,15.54
2022-10-19T11:48:29.615Z,15.66
2022-10-19T11:51:21.058Z,15.80
2022-10-19T11:54:12.403Z,15.60
2022-10-19T11:57:20.749Z,15.48
2022-10-19T12:00:14.461Z,15.72
2022-10-19T12:06:34.345Z,16.01
2022-10-19T12:09:31.916Z,15.66
2022-10-19T12:12:27.781Z,15.42
2022-10-19T12:15:14.269Z,15.46
2022-10-19T12:17:44.854Z,15.69
2022-10-19T12:20:29.104Z,15.82
2022-10-19T12:22:58.880Z,15.78
2022-10-19T12:25:26.686Z,15.72
2022-10-19T12:27:54.181Z,15.42
2022-10-19T12:30:22.752Z,15.05
2022-10-19T12:32:54.429Z,14.86
2022-10-19T12:35:29.616Z,15.01
2022-10-19T12:38:24.846Z,15.18
2022-10-19T12:40:54.592Z,15.19
2022-10-19T12:43:45.177Z,15.17
2022-10-19T12:46:26.298Z,15.10
2022-10-19T12:49:31.428Z,15.12
2022-10-19T12:52:00.108Z,15.07
2022-10-19T12:54:32.964Z,15.10
2022-10-19T12:57:01.953Z,15.16
2022-10-19T12:59:34.989Z,15.25
2022-10-19T13:02:05.192Z,15.19
2022-10-19T13:04:37.913Z,15.10
2022-10-19T13:07:10.980Z,15.16
2022-10-19T13:09:42.817Z,15.19
2022-10-19T13:12:19.560Z,15.25
2022-10-19T13:14:59.593Z,15.28
2022-10-19T13:17:38.074Z,15.16
2022-10-19T13:20:13.956Z,15.12
2022-10-19T13:22:52.128Z,15.17
2022-10-19T13:25:37.779Z,15.13
2022-10-19T13:28:07.414Z,15.19
2022-10-19T13:30:40.773Z,15.14
2022-10-19T13:33:25.659Z,15.18
2022-10-19T13:36:02.482Z,15.19
2022-10-19T13:38:29.204Z,15.17
2022-10-19T13:41:01.009Z,15.12
2022-10-19T13:43:32.064Z,15.07
2022-10-19T13:46:12.582Z,15.11
2022-10-19T13:48:48.815Z,15.15
2022-10-19T13:51:28.771Z,15.16
2022-10-19T13:54:24.179Z,15.19
2022-10-19T13:57:29.004Z,15.11
2022-10-19T14:00:14.270Z,15.09
2022-10-19T14:02:50.971Z,15.11
2022-10-19T14:06:07.854Z,15.10
2022-10-19T14:09:04.890Z,15.01
2022-10-19T14:11:36.405Z,15.07
2022-10-19T14:14:12.876Z,15.02
2022-10-19T14:17:03.789Z,14.99
2022-10-19T14:19:43.543Z,14.95
2022-10-19T14:22:36.266Z,14.92
2022-10-19T14:25:19.588Z,14.90
2022-10-19T14:27:47.420Z,14.92
2022-10-19T14:30:37.233Z,14.92
2022-10-19T14:33:10.347Z,14.73
2022-10-19T14:35:39.645Z,14.66
2022-10-19T14:38:08.647Z,14.60
2022-10-19T14:40:40.173Z,14.53
2022-10-19T14:43:25.415Z,14.50
2022-10-19T14:46:07.141Z,14.46
2022-10-19T14:48:39.827Z,14.42
2022-10-19T14:51:18.507Z,14.37
2022-10-19T14:53:47.943Z,14.35
2022-10-19T14:56:18.977Z,14.33
2022-10-19T14:58:52.695Z,14.38
2022-10-19T15:01:20.325Z,14.32
2022-10-19T15:03:49.049Z,14.24
2022-10-19T15:06:22.146Z,14.25
2022-10-19T15:08:55.470Z,14.18
2022-10-19T15:11:31.029Z,14.14
2022-10-19T15:14:02.639Z,14.13
2022-10-19T15:16:42.580Z,14.10
2022-10-19T15:19:23.310Z,14.03
2022-10-19T15:22:17.167Z,13.98
2022-10-19T15:25:00.419Z,13.88
2022-10-19T15:27:47.196Z,13.89
2022-10-19T15:30:21.160Z,13.81
2022-10-19T15:32:51.195Z,13.78
2022-10-19T15:35:29.202Z,13.76
2022-10-19T15:38:23.316Z,13.68
2022-10-19T15:40:58.524Z,13.67
2022-10-19T15:43:30.766Z,13.57
2022-10-19T15:46:06.262Z,13.52
2022-10-19T15:48:41.822Z,13.44
2022-10-19T15:51:28.622Z,13.39
2022-10-19T15:54:00.459Z,13.29
2022-10-19T15:56:28.360Z,13.24
2022-10-19T15:58:57.317Z,13.22
2022-10-19T16:01:26.828Z,13.14
2022-10-19T16:03:54.193Z,12.94
2022-10-19T16:06:23.387Z,12.86
2022-10-19T16:08:54.207Z,12.75
2022-10-19T16:11:22.988Z,12.61
2022-10-19T16:13:49.970Z,12.49
2022-10-19T16:16:26.250Z,12.34
2022-10-19T16:18:53.899Z,12.21
2022-10-19T16:21:23.725Z,12.13
2022-10-19T16:23:50.283Z,12.00
2022-10-19T16:26:17.575Z,11.87
2022-10-19T16:28:44.730Z,11.75
2022-10-19T16:31:11.486Z,11.66
2022-10-19T16:33:38.004Z,11.55
2022-10-19T16:36:07.339Z,11.47
2022-10-19T16:38:34.885Z,11.39
2022-10-19T16:41:08.566Z,11.33
2022-10-19T16:43:35.767Z,11.15
2022-10-19T16:46:03.279Z,11.16
2022-10-19T16:48:30.129Z,11.06
2022-10-19T16:51:05.794Z,11.03
2022-10-19T16:53:32.924Z,10.99
2022-10-19T16:56:12.370Z,10.99
2022-10-19T16:58:39.992Z,10.93
2022-10-19T17:01:13.034Z,10.82
2022-10-19T17:03:39.688Z,10.71
2022-10-19T17:06:07.709Z,10.65
2022-10-19T17:08:44.239Z,10.59
2022-10-19T17:11:28.186Z,10.56
2022-10-19T17:13:57.645Z,10.47
2022-10-19T17:16:25.190Z,10.40
2022-10-19T17:18:54.972Z,10.42
2022-10-19T17:21:24.023Z,10.32
2022-10-19T17:23:55.755Z,10.24
2022-10-19T17:26:27.627Z,10.13
2022-10-19T17:28:55.151Z,10.07
2022-10-19T17:31:22.203Z,9.99
2022-10-19T17:33:51.723Z,10.00
2022-10-19T17:36:23.185Z,9.96
2022-10-19T17:38:49.662Z,9.88
2022-10-19T17:41:18.146Z,9.82
2022-10-19T17:43:46.515Z,9.79
2022-10-19T17:46:16.315Z,9.72
2022-10-19T17:48:44.481Z,9.71
2022-10-19T17:51:16.241Z,9.59
2022-10-19T17:53:44.964Z,9.65
2022-10-19T17:56:13.659Z,9.59
2022-10-19T17:58:40.910Z,9.68
2022-10-19T18:01:09.192Z,9.67
2022-10-19T18:03:37.944Z,9.65
2022-10-19T18:06:32.081Z,9.67
2022-10-19T18:09:00.513Z,9.65
2022-10-19T18:11:30.400Z,9.65
2022-10-19T18:14:01.079Z,9.72
2022-10-19T18:16:47.071Z,9.79
2022-10-19T18:19:15.608Z,9.72
2022-10-19T18:21:43.648Z,9.69
2022-10-19T18:24:20.161Z,9.68
2022-10-19T18:26:48.722Z,9.61
2022-10-19T18:29:19.622Z,9.53
2022-10-19T18:31:51.435Z,9.51
2022-10-19T18:37:39.756Z,9.21
2022-10-19T18:40:06.750Z,9.26
2022-10-19T18:42:33.549Z,9.31
2022-10-19T18:45:00.192Z,9.24
2022-10-19T18:47:26.625Z,9.14
2022-10-19T18:49:54.593Z,9.09
2022-10-19T18:52:21.032Z,9.03
2022-10-19T18:54:47.615Z,9.04
2022-10-19T18:57:14.072Z,9.24
2022-10-19T18:59:40.539Z,9.23
2022-10-19T19:02:13.592Z,9.21
2022-10-19T19:04:48.909Z,9.09
2022-10-19T19:07:15.372Z,9.03
2022-10-19T19:09:42.699Z,8.88
2022-10-19T19:12:09.584Z,8.90
2022-10-19T19:14:38.073Z,8.93
2022-10-19T19:17:04.593Z,8.81
2022-10-19T19:19:31.082Z,8.80
2022-10-19T19:21:58.153Z,8.73
2022-10-19T19:24:28.223Z,8.67
2022-10-19T19:26:55.063Z,8.62
2022-10-19T19:29:22.094Z,8.55
2022-10-19T19:31:49.001Z,8.59
2022-10-19T19:34:15.582Z,8.58
2022-10-19T19:36:47.201Z,8.52
2022-10-19T19:39:16.225Z,8.52
2022-10-19T19:41:42.759Z,8.45
2022-10-19T19:44:09.330Z,8.44
2022-10-19T19:46:36.117Z,8.41
2022-10-19T19:49:04.276Z,8.48
2022-10-19T19:51:32.218Z,8.48
2022-10-19T19:53:58.886Z,8.46
2022-10-19T19:56:25.699Z,8.55
2022-10-19T19:59:00.446Z,8.56
2022-10-19T20:01:27.078Z,8.47
2022-10-19T20:03:53.652Z,8.43
2022-10-19T20:06:23.596Z,8.46
2022-10-19T20:08:52.486Z,8.58
2022-10-19T20:11:19.237Z,8.52
2022-10-19T20:13:45.902Z,8.49
2022-10-19T20:16:15.657Z,8.50
2022-10-19T20:18:45.281Z,8.49
2022-10-19T20:21:12.662Z,8.46
2022-10-19T20:23:39.212Z,8.55
2022-10-19T20:26:05.901Z,8.51
2022-10-19T20:28:33.116Z,8.47
2022-10-19T20:31:05.774Z,8.47
2022-10-19T20:33:34.597Z,8.56
2022-10-19T20:36:11.817Z,8.76
2022-10-19T20:38:39.313Z,8.86
2022-10-19T20:41:08.419Z,8.89
2022-10-19T20:43:37.039Z,8.99
2022-10-19T20:46:11.031Z,9.03
2022-10-19T20:48:37.818Z,9.02
2022-10-19T20:51:09.456Z,9.07
2022-10-19T20:53:35.970Z,9.05
2022-10-19T20:56:05.314Z,9.18
2022-10-19T20:58:31.889Z,9.22
2022-10-19T21:01:15.003Z,9.21
2022-10-19T21:03:50.771Z,9.24
2022-10-19T21:06:17.306Z,9.35
2022-10-19T21:08:43.818Z,9.29
2022-10-19T21:11:19.030Z,9.40
2022-10-19T21:13:46.333Z,9.45
2022-10-19T21:16:16.870Z,9.51
2022-10-19T21:18:44.415Z,9.60
2022-10-19T21:21:23.987Z,9.53
2022-10-19T21:23:55.466Z,9.62
2022-10-19T21:26:25.327Z,9.65
2022-10-19T21:28:55.171Z,9.65
2022-10-19T21:31:24.078Z,9.58
2022-10-19T21:33:51.693Z,9.54
2022-10-19T21:36:19.537Z,9.52
2022-10-19T21:38:46.011Z,9.57
2022-10-19T21:41:14.747Z,9.50
2022-10-19T21:43:41.664Z,9.51
2022-10-19T21:46:11.979Z,9.48
2022-10-19T21:48:38.844Z,9.44
2022-10-19T21:51:35.986Z,9.43
2022-10-19T21:54:05.032Z,9.28
2022-10-19T21:56:32.260Z,9.42
2022-10-19T21:58:58.808Z,9.40
2022-10-19T22:01:27.895Z,9.31
2022-10-19T22:03:59.225Z,9.38
2022-10-19T22:06:27.692Z,9.30
2022-10-19T22:08:55.393Z,9.22
2022-10-19T22:11:22.384Z,9.27
2022-10-19T22:13:48.908Z,9.25
2022-10-19T22:16:18.925Z,9.17
2022-10-19T22:18:46.506Z,9.17
2022-10-19T22:21:16.486Z,9.13
2022-10-19T22:23:43.153Z,9.11
2022-10-19T22:26:13.897Z,9.07
2022-10-19T22:28:40.589Z,9.09
2022-10-19T22:31:07.207Z,8.99
2022-10-19T22:33:35.083Z,9.05
2022-10-19T22:36:04.145Z,9.02
2022-10-19T22:38:30.965Z,9.04
2022-10-19T22:40:57.391Z,9.00
2022-10-19T22:43:23.872Z,8.96
2022-10-19T22:45:50.781Z,8.88
2022-10-19T22:48:18.152Z,8.91
2022-10-19T22:50:45.385Z,8.87
2022-10-19T22:53:12.339Z,8.89
2022-10-19T22:55:39.512Z,8.85
2022-10-19T22:58:07.575Z,8.83
2022-10-19T23:00:34.027Z,8.76
2022-10-19T23:03:00.503Z,8.74
2022-10-19T23:05:26.968Z,8.70
2022-10-19T23:07:53.416Z,8.67
2022-10-19T23:10:19.897Z,8.72
2022-10-19T23:12:54.014Z,8.66
2022-10-19T23:15:21.617Z,8.64
2022-10-19T23:17:48.318Z,8.64
2022-10-19T23:20:14.849Z,8.55
2022-10-19T23:22:41.313Z,8.55
2022-10-19T23:25:08.510Z,8.49
2022-10-19T23:27:35.291Z,8.44
2022-10-19T23:30:02.667Z,8.44
2022-10-19T23:32:29.214Z,8.42
2022-10-19T23:34:55.715Z,8.23
2022-10-19T23:37:22.199Z,8.31
2022-10-19T23:39:48.695Z,8.34
2022-10-19T23:42:15.113Z,8.22
2022-10-19T23:44:41.649Z,8.18
2022-10-19T23:47:08.098Z,8.06
2022-10-19T23:49:34.670Z,8.10
2022-10-19T23:52:01.116Z,8.13
2022-10-19T23:54:27.559Z,8.16
2022-10-19T23:56:54.021Z,8.11
2022-10-19T23:59:20.523Z,7.98
